sensor_id;sensor_type;location;lat;lon;timestamp;pressure;altitude;pressure_sealevel;temperature;humidity
77351;BME280;66420;50.246;14.320;2023-02-28T00:00:52;100612.53;;;-1.86;76.95
77351;BME280;66420;50.246;14.320;2023-02-28T00:03:37;100605.91;;;-1.90;76.54
77351;BME280;66420;50.246;14.320;2023-02-28T00:06:22;100607.16;;;-1.93;76.43
77351;BME280;66420;50.246;14.320;2023-02-28T00:09:08;100601.56;;;-1.98;76.68
77351;BME280;66420;50.246;14.320;2023-02-28T00:11:52;100603.81;;;-2.01;76.91
77351;BME280;66420;50.246;14.320;2023-02-28T00:14:37;100603.00;;;-2.02;77.38
77351;BME280;66420;50.246;14.320;2023-02-28T00:17:21;100604.22;;;-2.04;76.95
77351;BME280;66420;50.246;14.320;2023-02-28T00:20:07;100598.25;;;-2.06;76.86
77351;BME280;66420;50.246;14.320;2023-02-28T00:22:54;100599.88;;;-2.05;77.32
77351;BME280;66420;50.246;14.320;2023-02-28T00:25:39;100594.28;;;-2.10;77.71
77351;BME280;66420;50.246;14.320;2023-02-28T00:28:24;100604.22;;;-2.04;77.38
77351;BME280;66420;50.246;14.320;2023-02-28T00:31:08;100605.47;;;-2.07;77.73
77351;BME280;66420;50.246;14.320;2023-02-28T00:33:53;100598.63;;;-2.09;77.75
77351;BME280;66420;50.246;14.320;2023-02-28T00:36:37;100607.25;;;-2.14;77.12
77351;BME280;66420;50.246;14.320;2023-02-28T00:39:22;100600.47;;;-2.10;77.23
77351;BME280;66420;50.246;14.320;2023-02-28T00:42:07;100602.13;;;-2.09;77.31
77351;BME280;66420;50.246;14.320;2023-02-28T00:44:52;100606.06;;;-2.11;77.57
77351;BME280;66420;50.246;14.320;2023-02-28T00:47:37;100599.72;;;-1.97;76.57
77351;BME280;66420;50.246;14.320;2023-02-28T00:50:22;100598.88;;;-1.98;77.19
77351;BME280;66420;50.246;14.320;2023-02-28T00:53:06;100603.41;;;-1.92;76.15
77351;BME280;66420;50.246;14.320;2023-02-28T00:55:50;100603.88;;;-1.88;76.28
77351;BME280;66420;50.246;14.320;2023-02-28T00:58:35;100607.34;;;-1.88;76.21
77351;BME280;66420;50.246;14.320;2023-02-28T01:01:19;100602.84;;;-1.81;74.88
77351;BME280;66420;50.246;14.320;2023-02-28T01:04:04;100596.84;;;-1.83;75.26
77351;BME280;66420;50.246;14.320;2023-02-28T01:06:49;100593.75;;;-1.86;75.79
77351;BME280;66420;50.246;14.320;2023-02-28T01:09:34;100591.69;;;-1.84;74.80
77351;BME280;66420;50.246;14.320;2023-02-28T01:12:18;100595.00;;;-1.89;75.26
77351;BME280;66420;50.246;14.320;2023-02-28T01:15:03;100595.22;;;-1.84;74.95
77351;BME280;66420;50.246;14.320;2023-02-28T01:17:47;100603.25;;;-1.77;75.18
77351;BME280;66420;50.246;14.320;2023-02-28T01:20:32;100591.28;;;-1.81;74.58
77351;BME280;66420;50.246;14.320;2023-02-28T01:23:16;100598.50;;;-1.82;74.75
77351;BME280;66420;50.246;14.320;2023-02-28T01:26:09;100591.25;;;-1.88;74.75
77351;BME280;66420;50.246;14.320;2023-02-28T01:28:54;100587.34;;;-1.79;74.47
77351;BME280;66420;50.246;14.320;2023-02-28T01:31:38;100579.91;;;-1.83;74.90
77351;BME280;66420;50.246;14.320;2023-02-28T01:34:23;100589.22;;;-1.86;75.68
77351;BME280;66420;50.246;14.320;2023-02-28T01:37:07;100590.22;;;-1.87;75.12
77351;BME280;66420;50.246;14.320;2023-02-28T01:39:52;100583.44;;;-1.89;74.78
77351;BME280;66420;50.246;14.320;2023-02-28T01:42:36;100588.97;;;-1.91;75.26
77351;BME280;66420;50.246;14.320;2023-02-28T01:45:30;100591.84;;;-1.99;75.94
77351;BME280;66420;50.246;14.320;2023-02-28T01:48:15;100588.53;;;-2.01;76.19
77351;BME280;66420;50.246;14.320;2023-02-28T01:51:04;100590.19;;;-2.00;76.24
77351;BME280;66420;50.246;14.320;2023-02-28T01:53:58;100582.78;;;-1.98;75.74
77351;BME280;66420;50.246;14.320;2023-02-28T01:56:49;100586.06;;;-1.96;75.72
77351;BME280;66420;50.246;14.320;2023-02-28T01:59:46;100585.25;;;-1.96;75.92
77351;BME280;66420;50.246;14.320;2023-02-28T02:02:36;100574.09;;;-2.00;76.53
77351;BME280;66420;50.246;14.320;2023-02-28T02:05:27;100573.69;;;-1.97;75.38
77351;BME280;66420;50.246;14.320;2023-02-28T02:08:21;100575.75;;;-1.99;75.29
77351;BME280;66420;50.246;14.320;2023-02-28T02:11:08;100578.66;;;-1.94;75.13
77351;BME280;66420;50.246;14.320;2023-02-28T02:17:06;100574.31;;;-1.95;74.10
77351;BME280;66420;50.246;14.320;2023-02-28T02:20:16;100566.91;;;-1.93;73.82
77351;BME280;66420;50.246;14.320;2023-02-28T02:23:26;100569.38;;;-1.98;73.82
77351;BME280;66420;50.246;14.320;2023-02-28T02:38:46;100576.81;;;-2.47;74.67
77351;BME280;66420;50.246;14.320;2023-02-28T02:41:39;100565.75;;;-2.31;72.85
77351;BME280;66420;50.246;14.320;2023-02-28T02:44:33;100573.53;;;-2.43;73.37
77351;BME280;66420;50.246;14.320;2023-02-28T02:47:24;100571.91;;;-2.44;73.70
77351;BME280;66420;50.246;14.320;2023-02-28T02:50:15;100570.41;;;-2.46;73.22
77351;BME280;66420;50.246;14.320;2023-02-28T02:53:03;100580.06;;;-2.52;73.24
77351;BME280;66420;50.246;14.320;2023-02-28T02:55:51;100570.53;;;-2.67;74.09
77351;BME280;66420;50.246;14.320;2023-02-28T02:58:41;100577.06;;;-2.77;74.30
77351;BME280;66420;50.246;14.320;2023-02-28T03:01:29;100575.09;;;-2.96;74.02
77351;BME280;66420;50.246;14.320;2023-02-28T03:04:21;100577.28;;;-3.06;74.62
77351;BME280;66420;50.246;14.320;2023-02-28T03:07:06;100571.84;;;-3.19;75.58
77351;BME280;66420;50.246;14.320;2023-02-28T03:09:52;100578.53;;;-3.08;74.89
77351;BME280;66420;50.246;14.320;2023-02-28T03:12:47;100584.88;;;-3.09;74.98
77351;BME280;66420;50.246;14.320;2023-02-28T03:25:47;100585.19;;;-3.47;74.98
77351;BME280;66420;50.246;14.320;2023-02-28T03:31:43;100575.22;;;-3.60;75.75
77351;BME280;66420;50.246;14.320;2023-02-28T03:34:41;100582.28;;;-3.52;74.74
77351;BME280;66420;50.246;14.320;2023-02-28T03:37:29;100580.28;;;-3.43;74.37
77351;BME280;66420;50.246;14.320;2023-02-28T03:40:23;100579.81;;;-3.53;75.10
77351;BME280;66420;50.246;14.320;2023-02-28T03:43:14;100579.03;;;-3.47;74.74
77351;BME280;66420;50.246;14.320;2023-02-28T03:46:07;100576.88;;;-3.59;74.77
77351;BME280;66420;50.246;14.320;2023-02-28T03:49:00;100579.44;;;-3.72;75.71
77351;BME280;66420;50.246;14.320;2023-02-28T03:51:49;100573.03;;;-3.71;75.49
77351;BME280;66420;50.246;14.320;2023-02-28T03:54:47;100575.72;;;-3.71;76.12
77351;BME280;66420;50.246;14.320;2023-02-28T04:00:41;100576.38;;;-3.69;74.88
77351;BME280;66420;50.246;14.320;2023-02-28T04:03:28;100566.81;;;-3.78;75.75
77351;BME280;66420;50.246;14.320;2023-02-28T04:06:19;100574.56;;;-3.83;75.95
77351;BME280;66420;50.246;14.320;2023-02-28T04:09:06;100573.31;;;-3.87;75.63
77351;BME280;66420;50.246;14.320;2023-02-28T04:11:53;100580.63;;;-3.95;76.45
77351;BME280;66420;50.246;14.320;2023-02-28T04:14:39;100580.50;;;-4.09;75.75
77351;BME280;66420;50.246;14.320;2023-02-28T04:17:24;100585.53;;;-3.99;76.04
77351;BME280;66420;50.246;14.320;2023-02-28T04:20:09;100585.44;;;-4.06;76.34
77351;BME280;66420;50.246;14.320;2023-02-28T04:22:54;100582.81;;;-4.20;77.04
77351;BME280;66420;50.246;14.320;2023-02-28T04:25:38;100590.75;;;-4.27;76.47
77351;BME280;66420;50.246;14.320;2023-02-28T04:28:25;100576.69;;;-4.35;78.01
77351;BME280;66420;50.246;14.320;2023-02-28T04:31:10;100584.69;;;-4.35;78.08
77351;BME280;66420;50.246;14.320;2023-02-28T04:33:54;100579.59;;;-4.30;77.28
77351;BME280;66420;50.246;14.320;2023-02-28T04:36:39;100590.28;;;-4.30;76.29
77351;BME280;66420;50.246;14.320;2023-02-28T04:39:24;100588.94;;;-4.41;78.08
77351;BME280;66420;50.246;14.320;2023-02-28T04:42:10;100594.69;;;-4.59;79.03
77351;BME280;66420;50.246;14.320;2023-02-28T04:44:55;100595.84;;;-4.76;78.18
77351;BME280;66420;50.246;14.320;2023-02-28T04:47:39;100597.06;;;-4.93;79.91
77351;BME280;66420;50.246;14.320;2023-02-28T04:50:24;100592.91;;;-5.10;80.80
77351;BME280;66420;50.246;14.320;2023-02-28T04:53:08;100592.50;;;-5.22;81.38
77351;BME280;66420;50.246;14.320;2023-02-28T04:55:52;100594.78;;;-5.33;81.25
77351;BME280;66420;50.246;14.320;2023-02-28T04:58:37;100602.88;;;-5.42;82.26
77351;BME280;66420;50.246;14.320;2023-02-28T05:01:23;100597.88;;;-5.45;81.37
77351;BME280;66420;50.246;14.320;2023-02-28T05:04:08;100601.03;;;-5.26;81.61
77351;BME280;66420;50.246;14.320;2023-02-28T05:06:53;100604.75;;;-5.27;81.88
77351;BME280;66420;50.246;14.320;2023-02-28T05:09:39;100603.09;;;-5.28;80.99
77351;BME280;66420;50.246;14.320;2023-02-28T05:12:24;100608.84;;;-5.40;81.60
77351;BME280;66420;50.246;14.320;2023-02-28T05:15:12;100609.84;;;-5.41;81.90
77351;BME280;66420;50.246;14.320;2023-02-28T05:17:58;100615.28;;;-5.34;80.66
77351;BME280;66420;50.246;14.320;2023-02-28T05:20:42;100610.97;;;-5.35;81.09
77351;BME280;66420;50.246;14.320;2023-02-28T05:23:26;100612.16;;;-5.38;80.35
77351;BME280;66420;50.246;14.320;2023-02-28T05:26:12;100629.19;;;-5.39;80.73
77351;BME280;66420;50.246;14.320;2023-02-28T05:28:56;100622.06;;;-5.46;81.58
77351;BME280;66420;50.246;14.320;2023-02-28T05:31:41;100624.84;;;-5.40;81.15
77351;BME280;66420;50.246;14.320;2023-02-28T05:34:26;100626.28;;;-5.52;82.12
77351;BME280;66420;50.246;14.320;2023-02-28T05:37:14;100627.81;;;-5.57;82.18
77351;BME280;66420;50.246;14.320;2023-02-28T05:40:00;100625.59;;;-5.68;81.71
77351;BME280;66420;50.246;14.320;2023-02-28T05:42:44;100628.94;;;-5.74;83.08
77351;BME280;66420;50.246;14.320;2023-02-28T05:45:28;100624.25;;;-5.87;82.83
77351;BME280;66420;50.246;14.320;2023-02-28T05:48:13;100632.47;;;-5.97;83.65
77351;BME280;66420;50.246;14.320;2023-02-28T05:50:57;100631.69;;;-6.05;83.60
77351;BME280;66420;50.246;14.320;2023-02-28T05:53:42;100630.66;;;-6.04;84.27
77351;BME280;66420;50.246;14.320;2023-02-28T05:56:27;100636.28;;;-5.99;84.51
77351;BME280;66420;50.246;14.320;2023-02-28T05:59:12;100641.63;;;-5.99;84.48
77351;BME280;66420;50.246;14.320;2023-02-28T06:01:57;100641.97;;;-6.02;84.55
77351;BME280;66420;50.246;14.320;2023-02-28T06:04:43;100650.13;;;-6.04;84.17
77351;BME280;66420;50.246;14.320;2023-02-28T06:07:28;100660.63;;;-6.02;84.13
77351;BME280;66420;50.246;14.320;2023-02-28T06:10:13;100651.94;;;-5.96;85.13
77351;BME280;66420;50.246;14.320;2023-02-28T06:13:00;100656.91;;;-5.93;83.71
77351;BME280;66420;50.246;14.320;2023-02-28T06:15:46;100652.16;;;-5.83;83.51
77351;BME280;66420;50.246;14.320;2023-02-28T06:18:30;100655.03;;;-5.62;83.02
77351;BME280;66420;50.246;14.320;2023-02-28T06:21:15;100674.34;;;-5.60;82.10
77351;BME280;66420;50.246;14.320;2023-02-28T06:24:00;100674.34;;;-5.60;81.77
77351;BME280;66420;50.246;14.320;2023-02-28T06:26:45;100682.06;;;-5.42;81.83
77351;BME280;66420;50.246;14.320;2023-02-28T06:29:34;100670.78;;;-5.29;81.68
77351;BME280;66420;50.246;14.320;2023-02-28T06:32:19;100677.59;;;-5.27;81.11
77351;BME280;66420;50.246;14.320;2023-02-28T06:35:04;100680.22;;;-5.19;80.60
77351;BME280;66420;50.246;14.320;2023-02-28T06:37:49;100674.09;;;-5.05;80.65
77351;BME280;66420;50.246;14.320;2023-02-28T06:40:33;100693.00;;;-4.62;77.53
77351;BME280;66420;50.246;14.320;2023-02-28T06:43:20;100697.00;;;-4.29;76.08
77351;BME280;66420;50.246;14.320;2023-02-28T06:46:07;100696.06;;;-4.07;75.17
77351;BME280;66420;50.246;14.320;2023-02-28T06:48:52;100706.03;;;-3.65;74.46
77351;BME280;66420;50.246;14.320;2023-02-28T06:51:38;100698.75;;;-3.14;72.54
77351;BME280;66420;50.246;14.320;2023-02-28T06:54:23;100692.28;;;-2.08;70.40
77351;BME280;66420;50.246;14.320;2023-02-28T06:57:08;100706.66;;;-0.55;63.43
77351;BME280;66420;50.246;14.320;2023-02-28T06:59:53;100708.03;;;0.45;61.80
77351;BME280;66420;50.246;14.320;2023-02-28T07:02:37;100703.56;;;1.26;57.02
77351;BME280;66420;50.246;14.320;2023-02-28T07:05:22;100701.53;;;2.08;54.44
77351;BME280;66420;50.246;14.320;2023-02-28T07:08:07;100709.66;;;2.86;53.21
77351;BME280;66420;50.246;14.320;2023-02-28T07:10:55;100704.59;;;3.31;51.43
77351;BME280;66420;50.246;14.320;2023-02-28T07:13:40;100714.94;;;4.15;49.13
77351;BME280;66420;50.246;14.320;2023-02-28T07:16:25;100712.16;;;3.87;48.48
77351;BME280;66420;50.246;14.320;2023-02-28T07:19:10;100709.94;;;4.75;46.76
77351;BME280;66420;50.246;14.320;2023-02-28T07:21:55;100700.91;;;4.86;46.06
77351;BME280;66420;50.246;14.320;2023-02-28T07:24:39;100707.91;;;4.82;45.27
77351;BME280;66420;50.246;14.320;2023-02-28T07:27:24;100706.72;;;5.07;45.55
77351;BME280;66420;50.246;14.320;2023-02-28T07:30:10;100709.97;;;4.92;45.50
77351;BME280;66420;50.246;14.320;2023-02-28T07:32:55;100707.78;;;4.77;46.12
77351;BME280;66420;50.246;14.320;2023-02-28T07:35:40;100711.09;;;5.74;42.44
77351;BME280;66420;50.246;14.320;2023-02-28T07:38:25;100704.41;;;5.15;42.81
77351;BME280;66420;50.246;14.320;2023-02-28T07:41:09;100703.16;;;5.73;42.16
77351;BME280;66420;50.246;14.320;2023-02-28T07:43:54;100707.00;;;5.72;42.83
77351;BME280;66420;50.246;14.320;2023-02-28T07:46:41;100722.28;;;4.83;43.35
77351;BME280;66420;50.246;14.320;2023-02-28T07:49:26;100706.75;;;4.95;43.10
77351;BME280;66420;50.246;14.320;2023-02-28T07:52:11;100712.97;;;5.07;42.48
77351;BME280;66420;50.246;14.320;2023-02-28T07:54:55;100710.19;;;5.19;41.66
77351;BME280;66420;50.246;14.320;2023-02-28T07:57:40;100706.53;;;6.13;40.96
77351;BME280;66420;50.246;14.320;2023-02-28T08:00:25;100715.22;;;4.42;43.75
77351;BME280;66420;50.246;14.320;2023-02-28T08:03:13;100708.88;;;6.48;40.34
77351;BME280;66420;50.246;14.320;2023-02-28T08:05:57;100707.47;;;6.67;39.37
77351;BME280;66420;50.246;14.320;2023-02-28T08:08:42;100715.13;;;6.49;39.93
77351;BME280;66420;50.246;14.320;2023-02-28T08:11:27;100703.06;;;7.47;37.98
77351;BME280;66420;50.246;14.320;2023-02-28T08:14:11;100704.25;;;6.49;39.56
77351;BME280;66420;50.246;14.320;2023-02-28T08:16:56;100708.28;;;7.90;37.13
77351;BME280;66420;50.246;14.320;2023-02-28T08:19:40;100705.19;;;7.40;36.95
77351;BME280;66420;50.246;14.320;2023-02-28T08:22:24;100705.47;;;7.43;36.70
77351;BME280;66420;50.246;14.320;2023-02-28T08:25:09;100693.25;;;7.83;35.71
77351;BME280;66420;50.246;14.320;2023-02-28T08:27:54;100707.78;;;8.45;36.44
77351;BME280;66420;50.246;14.320;2023-02-28T08:30:39;100704.13;;;8.97;33.20
77351;BME280;66420;50.246;14.320;2023-02-28T08:33:26;100696.63;;;8.00;35.57
77351;BME280;66420;50.246;14.320;2023-02-28T08:36:11;100705.47;;;7.80;35.43
77351;BME280;66420;50.246;14.320;2023-02-28T08:38:56;100699.81;;;9.57;34.04
77351;BME280;66420;50.246;14.320;2023-02-28T08:41:42;100700.84;;;9.00;33.89
77351;BME280;66420;50.246;14.320;2023-02-28T08:44:27;100705.44;;;8.74;34.74
77351;BME280;66420;50.246;14.320;2023-02-28T08:47:11;100706.16;;;10.57;32.24
77351;BME280;66420;50.246;14.320;2023-02-28T08:49:56;100699.56;;;10.63;31.84
77351;BME280;66420;50.246;14.320;2023-02-28T08:52:42;100707.75;;;9.48;32.28
77351;BME280;66420;50.246;14.320;2023-02-28T08:55:28;100705.16;;;8.66;34.15
77351;BME280;66420;50.246;14.320;2023-02-28T08:58:12;100705.50;;;9.86;33.46
77351;BME280;66420;50.246;14.320;2023-02-28T09:00:57;100705.50;;;9.86;32.00
77351;BME280;66420;50.246;14.320;2023-02-28T09:03:42;100701.94;;;10.15;30.99
77351;BME280;66420;50.246;14.320;2023-02-28T09:06:27;100710.84;;;8.64;34.38
77351;BME280;66420;50.246;14.320;2023-02-28T09:09:12;100703.03;;;8.93;34.01
77351;BME280;66420;50.246;14.320;2023-02-28T09:11:56;100706.88;;;9.73;33.01
77351;BME280;66420;50.246;14.320;2023-02-28T09:14:41;100697.34;;;9.50;32.48
77351;BME280;66420;50.246;14.320;2023-02-28T09:17:26;100706.97;;;10.57;29.82
77351;BME280;66420;50.246;14.320;2023-02-28T09:20:11;100699.88;;;11.00;29.54
77351;BME280;66420;50.246;14.320;2023-02-28T09:22:56;100703.25;;;11.31;29.00
77351;BME280;66420;50.246;14.320;2023-02-28T09:25:50;100713.47;;;10.72;28.43
77351;BME280;66420;50.246;14.320;2023-02-28T09:28:35;100694.06;;;9.63;31.96
77351;BME280;66420;50.246;14.320;2023-02-28T09:31:25;100695.50;;;11.38;28.88
77351;BME280;66420;50.246;14.320;2023-02-28T09:34:10;100696.00;;;10.68;29.67
77351;BME280;66420;50.246;14.320;2023-02-28T09:36:55;100705.16;;;11.31;29.07
77351;BME280;66420;50.246;14.320;2023-02-28T09:39:39;100688.34;;;12.05;29.58
77351;BME280;66420;50.246;14.320;2023-02-28T09:42:31;100694.47;;;13.24;26.39
77351;BME280;66420;50.246;14.320;2023-02-28T09:45:39;100703.25;;;12.65;26.78
77351;BME280;66420;50.246;14.320;2023-02-28T09:48:29;100696.25;;;11.83;29.00
77351;BME280;66420;50.246;14.320;2023-02-28T09:51:28;100699.00;;;12.97;26.45
77351;BME280;66420;50.246;14.320;2023-02-28T09:54:17;100698.72;;;13.17;26.10
77351;BME280;66420;50.246;14.320;2023-02-28T09:57:42;100707.03;;;13.49;26.09
77351;BME280;66420;50.246;14.320;2023-02-28T10:00:48;100701.94;;;11.91;27.72
77351;BME280;66420;50.246;14.320;2023-02-28T10:03:43;100707.84;;;13.50;25.46
77351;BME280;66420;50.246;14.320;2023-02-28T10:06:41;100705.66;;;13.33;26.10
77351;BME280;66420;50.246;14.320;2023-02-28T10:09:33;100707.88;;;13.12;27.05
77351;BME280;66420;50.246;14.320;2023-02-28T10:12:19;100703.66;;;11.82;26.08
77351;BME280;66420;50.246;14.320;2023-02-28T10:15:13;100699.19;;;11.57;29.13
77351;BME280;66420;50.246;14.320;2023-02-28T10:18:03;100693.19;;;12.79;26.54
77351;BME280;66420;50.246;14.320;2023-02-28T10:20:49;100701.78;;;11.44;27.47
77351;BME280;66420;50.246;14.320;2023-02-28T10:23:37;100701.13;;;11.57;27.98
77351;BME280;66420;50.246;14.320;2023-02-28T10:26:22;100692.72;;;11.43;27.50
77351;BME280;66420;50.246;14.320;2023-02-28T10:29:09;100689.00;;;11.29;27.78
77351;BME280;66420;50.246;14.320;2023-02-28T10:31:54;100700.56;;;12.41;26.81
77351;BME280;66420;50.246;14.320;2023-02-28T10:34:38;100695.69;;;11.18;28.22
77351;BME280;66420;50.246;14.320;2023-02-28T10:37:23;100695.25;;;12.26;26.52
77351;BME280;66420;50.246;14.320;2023-02-28T10:46:09;100680.03;;;12.10;27.19
77351;BME280;66420;50.246;14.320;2023-02-28T10:49:13;100685.84;;;12.09;27.61
77351;BME280;66420;50.246;14.320;2023-02-28T10:52:00;100677.88;;;12.07;26.92
77351;BME280;66420;50.246;14.320;2023-02-28T10:54:44;100682.28;;;13.30;25.46
77351;BME280;66420;50.246;14.320;2023-02-28T10:57:30;100680.28;;;12.99;25.72
77351;BME280;66420;50.246;14.320;2023-02-28T11:00:22;100685.47;;;10.36;29.66
77351;BME280;66420;50.246;14.320;2023-02-28T11:03:23;100674.28;;;12.12;28.06
77351;BME280;66420;50.246;14.320;2023-02-28T11:06:29;100660.88;;;10.75;28.38
77351;BME280;66420;50.246;14.320;2023-02-28T11:09:27;100660.00;;;12.76;27.87
77351;BME280;66420;50.246;14.320;2023-02-28T11:12:38;100665.66;;;12.42;26.75
77351;BME280;66420;50.246;14.320;2023-02-28T11:15:24;100665.41;;;11.96;28.01
77351;BME280;66420;50.246;14.320;2023-02-28T11:20:59;100662.75;;;12.95;25.81
77351;BME280;66420;50.246;14.320;2023-02-28T11:23:45;100652.06;;;12.74;26.31
77351;BME280;66420;50.246;14.320;2023-02-28T11:26:37;100658.72;;;13.89;25.93
77351;BME280;66420;50.246;14.320;2023-02-28T11:29:29;100654.75;;;11.89;28.64
77351;BME280;66420;50.246;14.320;2023-02-28T11:37:53;100664.09;;;13.16;25.90
77351;BME280;66420;50.246;14.320;2023-02-28T11:55:37;100631.53;;;14.42;25.55
77351;BME280;66420;50.246;14.320;2023-02-28T12:01:31;100636.22;;;12.05;26.65
77351;BME280;66420;50.246;14.320;2023-02-28T12:04:33;100619.69;;;12.53;26.90
77351;BME280;66420;50.246;14.320;2023-02-28T12:11:03;100628.78;;;12.06;27.72
77351;BME280;66420;50.246;14.320;2023-02-28T12:14:14;100623.03;;;11.54;29.36
77351;BME280;66420;50.246;14.320;2023-02-28T12:29:16;100615.53;;;12.36;28.53
77351;BME280;66420;50.246;14.320;2023-02-28T12:32:11;100616.94;;;11.57;29.83
77351;BME280;66420;50.246;14.320;2023-02-28T12:35:02;100623.88;;;12.03;28.30
77351;BME280;66420;50.246;14.320;2023-02-28T12:40:43;100609.66;;;11.77;28.04
77351;BME280;66420;50.246;14.320;2023-02-28T12:43:37;100602.75;;;10.88;29.90
77351;BME280;66420;50.246;14.320;2023-02-28T12:46:32;100612.78;;;11.89;29.52
77351;BME280;66420;50.246;14.320;2023-02-28T12:49:27;100599.81;;;10.74;29.33
77351;BME280;66420;50.246;14.320;2023-02-28T12:52:23;100601.41;;;10.41;30.12
77351;BME280;66420;50.246;14.320;2023-02-28T13:10:49;100586.03;;;10.45;30.14
77351;BME280;66420;50.246;14.320;2023-02-28T13:13:44;100582.38;;;11.04;30.43
77351;BME280;66420;50.246;14.320;2023-02-28T13:19:34;100586.44;;;8.99;32.75
77351;BME280;66420;50.246;14.320;2023-02-28T13:22:39;100580.47;;;10.06;31.08
77351;BME280;66420;50.246;14.320;2023-02-28T13:37:43;100592.56;;;8.18;34.25
77351;BME280;66420;50.246;14.320;2023-02-28T13:40:33;100584.50;;;8.59;34.04
77351;BME280;66420;50.246;14.320;2023-02-28T13:49:33;100578.19;;;7.76;34.38
77351;BME280;66420;50.246;14.320;2023-02-28T13:52:23;100574.72;;;7.90;34.25
77351;BME280;66420;50.246;14.320;2023-02-28T13:55:26;100566.72;;;7.69;34.50
77351;BME280;66420;50.246;14.320;2023-02-28T13:59:12;100565.97;;;7.78;35.66
77351;BME280;66420;50.246;14.320;2023-02-28T14:01:53;100572.22;;;6.95;36.24
77351;BME280;66420;50.246;14.320;2023-02-28T14:05:04;100566.50;;;6.64;36.96
77351;BME280;66420;50.246;14.320;2023-02-28T14:07:50;100573.31;;;6.35;37.91
77351;BME280;66420;50.246;14.320;2023-02-28T14:10:45;100565.22;;;6.40;38.62
77351;BME280;66420;50.246;14.320;2023-02-28T14:13:45;100562.53;;;6.18;38.96
77351;BME280;66420;50.246;14.320;2023-02-28T14:16:40;100563.50;;;6.07;39.07
77351;BME280;66420;50.246;14.320;2023-02-28T14:19:31;100561.91;;;5.68;39.44
77351;BME280;66420;50.246;14.320;2023-02-28T14:31:44;100560.22;;;4.90;41.39
77351;BME280;66420;50.246;14.320;2023-02-28T14:34:52;100548.19;;;4.86;40.91
77351;BME280;66420;50.246;14.320;2023-02-28T14:37:39;100547.69;;;4.56;41.35
77351;BME280;66420;50.246;14.320;2023-02-28T14:40:32;100546.56;;;4.52;40.91
77351;BME280;66420;50.246;14.320;2023-02-28T14:43:23;100549.31;;;4.40;41.98
77351;BME280;66420;50.246;14.320;2023-02-28T14:46:12;100543.56;;;4.36;42.02
77351;BME280;66420;50.246;14.320;2023-02-28T14:48:58;100528.13;;;4.37;42.70
77351;BME280;66420;50.246;14.320;2023-02-28T14:51:43;100535.63;;;4.46;43.20
77351;BME280;66420;50.246;14.320;2023-02-28T14:54:28;100547.34;;;4.35;43.22
77351;BME280;66420;50.246;14.320;2023-02-28T14:57:30;100545.22;;;4.09;42.83
77351;BME280;66420;50.246;14.320;2023-02-28T15:03:18;100539.66;;;3.87;43.44
77351;BME280;66420;50.246;14.320;2023-02-28T15:06:12;100555.16;;;3.64;43.22
77351;BME280;66420;50.246;14.320;2023-02-28T15:09:09;100548.81;;;3.58;43.48
77351;BME280;66420;50.246;14.320;2023-02-28T15:11:54;100554.78;;;3.72;43.73
77351;BME280;66420;50.246;14.320;2023-02-28T15:14:42;100537.06;;;3.52;43.36
77351;BME280;66420;50.246;14.320;2023-02-28T15:17:28;100551.66;;;3.51;44.06
77351;BME280;66420;50.246;14.320;2023-02-28T15:20:14;100538.72;;;3.30;44.35
77351;BME280;66420;50.246;14.320;2023-02-28T15:22:59;100548.16;;;3.16;44.63
77351;BME280;66420;50.246;14.320;2023-02-28T15:25:45;100549.22;;;3.15;44.88
77351;BME280;66420;50.246;14.320;2023-02-28T15:28:30;100547.22;;;3.10;44.84
77351;BME280;66420;50.246;14.320;2023-02-28T15:31:27;100556.16;;;3.11;45.90
77351;BME280;66420;50.246;14.320;2023-02-28T15:34:22;100542.97;;;3.03;44.98
77351;BME280;66420;50.246;14.320;2023-02-28T15:37:27;100547.56;;;2.91;45.39
77351;BME280;66420;50.246;14.320;2023-02-28T15:40:17;100542.50;;;2.83;46.02
77351;BME280;66420;50.246;14.320;2023-02-28T15:43:18;100546.88;;;2.84;46.00
77351;BME280;66420;50.246;14.320;2023-02-28T15:46:08;100544.25;;;2.65;46.54
77351;BME280;66420;50.246;14.320;2023-02-28T15:48:55;100539.56;;;2.73;47.01
77351;BME280;66420;50.246;14.320;2023-02-28T15:51:41;100547.06;;;2.59;47.51
77351;BME280;66420;50.246;14.320;2023-02-28T15:54:32;100546.72;;;2.55;47.19
77351;BME280;66420;50.246;14.320;2023-02-28T15:57:24;100547.13;;;2.41;47.54
77351;BME280;66420;50.246;14.320;2023-02-28T16:00:13;100546.19;;;2.35;48.41
77351;BME280;66420;50.246;14.320;2023-02-28T16:02:58;100538.59;;;2.14;48.67
77351;BME280;66420;50.246;14.320;2023-02-28T16:05:43;100545.75;;;2.08;48.00
77351;BME280;66420;50.246;14.320;2023-02-28T16:08:28;100544.78;;;2.03;48.22
77351;BME280;66420;50.246;14.320;2023-02-28T16:11:13;100542.88;;;1.92;49.07
77351;BME280;66420;50.246;14.320;2023-02-28T16:13:57;100545.75;;;1.78;49.37
77351;BME280;66420;50.246;14.320;2023-02-28T16:16:48;100552.09;;;1.66;49.70
77351;BME280;66420;50.246;14.320;2023-02-28T16:19:33;100546.81;;;1.59;50.18
77351;BME280;66420;50.246;14.320;2023-02-28T16:22:18;100537.44;;;1.44;50.38
77351;BME280;66420;50.246;14.320;2023-02-28T16:25:03;100550.34;;;1.42;50.47
77351;BME280;66420;50.246;14.320;2023-02-28T16:27:50;100550.03;;;1.31;51.48
77351;BME280;66420;50.246;14.320;2023-02-28T16:30:38;100553.66;;;1.01;53.17
77351;BME280;66420;50.246;14.320;2023-02-28T16:33:22;100558.41;;;0.80;53.81
77351;BME280;66420;50.246;14.320;2023-02-28T16:36:12;100561.91;;;0.56;54.49
77351;BME280;66420;50.246;14.320;2023-02-28T16:38:57;100567.00;;;0.39;54.60
77351;BME280;66420;50.246;14.320;2023-02-28T16:41:44;100562.19;;;0.17;55.66
77351;BME280;66420;50.246;14.320;2023-02-28T16:44:33;100564.34;;;0.02;55.74